Airport View

Enter AWOS ICAO identifier for current METAR.

ex. KFNL

KPTS 171040Z AUTO 20004KT 10SM CLR 06/M01 A3004 RMK AO2 T00591012

17 Nov 2019 10:38

Frequency: 118.775

Phone: 620-230-5654

Other Area AWOS: KJLN - KPPF - KCNU - KK88

TAF KJLN 170521Z 1706/1806 17006KT P6SM BKN200 FM171500 22008KT P6SM VCSH OVC090 FM172100 31010KT P6SM BKN045